createdAt,value
2023-05-20T00:00:35.159Z,15.66
2023-05-20T00:03:01.634Z,15.66
2023-05-20T00:05:28.039Z,15.64
2023-05-20T00:07:54.610Z,15.62
2023-05-20T00:10:21.038Z,15.57
2023-05-20T00:12:47.400Z,15.44
2023-05-20T00:15:13.976Z,15.42
2023-05-20T00:17:40.483Z,15.43
2023-05-20T00:20:08.198Z,15.43
2023-05-20T00:22:34.631Z,15.45
2023-05-20T00:25:01.138Z,15.41
2023-05-20T00:27:27.576Z,15.39
2023-05-20T00:29:54.115Z,15.33
2023-05-20T00:32:20.550Z,15.31
2023-05-20T00:34:57.143Z,15.39
2023-05-20T00:37:24.137Z,15.25
2023-05-20T00:39:50.642Z,15.22
2023-05-20T00:42:27.853Z,15.16
2023-05-20T00:44:55.965Z,15.07
2023-05-20T00:47:32.486Z,15.09
2023-05-20T00:50:00.306Z,15.05
2023-05-20T00:52:30.492Z,14.97
2023-05-20T00:54:58.508Z,14.87
2023-05-20T00:57:25.277Z,14.79
2023-05-20T00:59:51.937Z,14.74
2023-05-20T01:02:19.149Z,14.71
2023-05-20T01:04:47.342Z,14.68
2023-05-20T01:07:16.411Z,14.63
2023-05-20T01:09:43.255Z,14.66
2023-05-20T01:12:21.558Z,14.57
2023-05-20T01:14:50.948Z,14.55
2023-05-20T01:17:20.925Z,14.60
2023-05-20T01:19:49.076Z,14.50
2023-05-20T01:22:16.219Z,14.45
2023-05-20T01:24:44.744Z,14.42
2023-05-20T01:27:13.635Z,14.45
2023-05-20T01:29:41.545Z,14.40
2023-05-20T01:32:12.376Z,14.40
2023-05-20T01:34:41.528Z,14.40
2023-05-20T01:37:09.040Z,14.39
2023-05-20T01:39:38.312Z,14.43
2023-05-20T01:42:06.299Z,14.44
2023-05-20T01:44:33.498Z,14.46
2023-05-20T01:47:01.484Z,14.45
2023-05-20T01:49:28.274Z,14.43
2023-05-20T01:51:55.135Z,14.42
2023-05-20T01:54:21.833Z,14.41
2023-05-20T01:56:48.399Z,14.38
2023-05-20T01:59:14.840Z,14.23
2023-05-20T02:01:41.343Z,14.21
2023-05-20T02:04:07.833Z,14.14
2023-05-20T02:06:34.251Z,14.08
2023-05-20T02:09:00.796Z,14.05
2023-05-20T02:11:27.437Z,14.03
2023-05-20T02:13:53.886Z,14.14
2023-05-20T02:16:20.348Z,14.08
2023-05-20T02:18:46.913Z,13.97
2023-05-20T02:21:13.433Z,13.98
2023-05-20T02:23:39.852Z,13.93
2023-05-20T02:26:06.558Z,13.84
2023-05-20T02:28:33.530Z,13.88
2023-05-20T02:30:59.947Z,13.87
2023-05-20T02:33:29.042Z,13.87
2023-05-20T02:35:55.628Z,13.90
2023-05-20T02:38:22.051Z,13.93
2023-05-20T02:40:48.447Z,13.98
2023-05-20T02:43:14.812Z,13.97
2023-05-20T02:45:41.388Z,14.02
2023-05-20T02:48:08.031Z,13.98
2023-05-20T02:50:34.454Z,13.98
2023-05-20T02:53:00.979Z,13.93
2023-05-20T02:55:28.406Z,13.88
2023-05-20T02:57:54.941Z,13.83
2023-05-20T03:00:23.156Z,13.83
2023-05-20T03:02:49.643Z,13.88
2023-05-20T03:05:16.105Z,13.83
2023-05-20T03:07:42.556Z,13.84
2023-05-20T03:10:10.685Z,13.76
2023-05-20T03:12:37.121Z,13.77
2023-05-20T03:15:03.828Z,13.69
2023-05-20T03:17:30.473Z,13.73
2023-05-20T03:19:56.902Z,13.65
2023-05-20T03:22:23.385Z,13.65
2023-05-20T03:24:49.875Z,13.61
2023-05-20T03:27:16.294Z,13.58
2023-05-20T03:29:42.631Z,13.64
2023-05-20T03:32:10.870Z,13.67
2023-05-20T03:34:38.163Z,13.69
2023-05-20T03:37:04.735Z,13.64
2023-05-20T03:39:31.190Z,13.55
2023-05-20T03:41:57.608Z,13.54
2023-05-20T03:44:24.015Z,13.53
2023-05-20T03:46:50.784Z,13.63
2023-05-20T03:49:17.163Z,13.79
2023-05-20T03:51:43.547Z,13.77
2023-05-20T03:54:10.027Z,13.78
2023-05-20T03:56:36.563Z,13.85
2023-05-20T03:59:02.948Z,13.94
2023-05-20T04:01:29.466Z,14.00
2023-05-20T04:03:56.027Z,13.99
2023-05-20T04:06:22.608Z,14.03
2023-05-20T04:08:50.226Z,13.94
2023-05-20T04:11:17.083Z,13.94
2023-05-20T04:13:43.503Z,13.86
2023-05-20T04:16:10.066Z,13.78
2023-05-20T04:18:39.156Z,13.68
2023-05-20T04:21:05.797Z,13.70
2023-05-20T04:23:33.045Z,13.73
2023-05-20T04:26:02.245Z,13.74
2023-05-20T04:28:31.271Z,13.59
2023-05-20T04:31:04.618Z,13.66
2023-05-20T04:33:32.782Z,13.63
2023-05-20T04:35:59.678Z,13.72
2023-05-20T04:38:30.267Z,13.73
2023-05-20T04:40:58.018Z,13.67
2023-05-20T04:43:25.888Z,13.69
2023-05-20T04:45:55.608Z,13.73
2023-05-20T04:48:22.517Z,13.76
2023-05-20T04:50:49.725Z,13.73
2023-05-20T04:53:17.585Z,13.76
2023-05-20T04:55:45.270Z,13.77
2023-05-20T04:58:15.263Z,13.79
2023-05-20T05:00:42.493Z,13.82
2023-05-20T05:03:09.995Z,13.85
2023-05-20T05:05:39.361Z,13.90
2023-05-20T05:08:06.870Z,13.92
2023-05-20T05:10:33.510Z,13.97
2023-05-20T05:13:00.034Z,14.05
2023-05-20T05:15:27.236Z,14.08
2023-05-20T05:17:53.931Z,14.17
2023-05-20T05:20:20.449Z,14.28
2023-05-20T05:22:47.238Z,14.38
2023-05-20T05:25:14.009Z,14.34
2023-05-20T05:27:40.700Z,14.37
2023-05-20T05:30:08.094Z,14.46
2023-05-20T05:32:35.074Z,14.61
2023-05-20T05:35:01.618Z,14.61
2023-05-20T05:37:28.081Z,14.51
2023-05-20T05:39:54.523Z,14.57
2023-05-20T05:42:22.056Z,14.66
2023-05-20T05:44:48.992Z,14.71
2023-05-20T05:47:15.937Z,14.73
2023-05-20T05:49:42.398Z,14.78
2023-05-20T05:52:08.904Z,14.77
2023-05-20T05:54:35.365Z,14.88
2023-05-20T05:57:01.744Z,14.93
2023-05-20T05:59:28.152Z,14.93
2023-05-20T06:01:54.627Z,14.84
2023-05-20T06:04:21.086Z,14.93
2023-05-20T06:06:48.466Z,15.18
2023-05-20T06:09:15.123Z,15.35
2023-05-20T06:11:42.297Z,15.46
2023-05-20T06:14:08.816Z,15.46
2023-05-20T06:16:35.208Z,15.53
2023-05-20T06:19:03.478Z,15.57
2023-05-20T06:21:31.618Z,15.65
2023-05-20T06:23:58.041Z,15.51
2023-05-20T06:26:24.454Z,15.51
2023-05-20T06:28:51.265Z,15.71
2023-05-20T06:31:17.886Z,15.77
2023-05-20T06:33:44.373Z,15.86
2023-05-20T06:36:11.479Z,15.94
2023-05-20T06:38:38.412Z,15.99
2023-05-20T06:41:04.866Z,16.09
2023-05-20T06:43:32.585Z,15.97
2023-05-20T06:45:59.010Z,16.08
2023-05-20T06:48:25.512Z,16.17
2023-05-20T06:50:52.125Z,16.03
2023-05-20T06:53:18.637Z,16.03
2023-05-20T06:55:44.997Z,16.06
2023-05-20T06:58:11.423Z,16.05
2023-05-20T07:00:37.891Z,16.11
2023-05-20T07:03:04.364Z,16.14
2023-05-20T07:05:32.195Z,16.16
2023-05-20T07:07:58.762Z,16.29
2023-05-20T07:10:25.164Z,16.26
2023-05-20T07:12:51.725Z,16.33
2023-05-20T07:15:18.200Z,16.33
2023-05-20T07:17:44.615Z,16.23
2023-05-20T07:20:11.315Z,16.41
2023-05-20T07:22:37.745Z,16.54
2023-05-20T07:25:04.446Z,16.52
2023-05-20T07:27:30.949Z,16.49
2023-05-20T07:29:57.323Z,16.59
2023-05-20T07:32:23.725Z,16.74
2023-05-20T07:34:50.352Z,16.89
2023-05-20T07:37:16.732Z,16.85
2023-05-20T07:39:43.141Z,16.75
2023-05-20T07:42:09.873Z,16.68
2023-05-20T07:44:36.453Z,16.71
2023-05-20T07:47:03.322Z,16.80
2023-05-20T07:49:30.014Z,16.87
2023-05-20T07:51:56.377Z,16.85
2023-05-20T07:54:23.362Z,16.71
2023-05-20T07:56:49.858Z,16.70
2023-05-20T07:59:16.336Z,16.75
2023-05-20T08:01:43.127Z,16.89
2023-05-20T08:04:09.767Z,16.97
2023-05-20T08:06:36.396Z,17.13
2023-05-20T08:09:03.031Z,17.00
2023-05-20T08:11:29.510Z,16.97
2023-05-20T08:13:56.044Z,17.06
2023-05-20T08:16:22.495Z,17.03
2023-05-20T08:18:49.102Z,17.15
2023-05-20T08:21:15.784Z,17.30
2023-05-20T08:23:42.206Z,17.40
2023-05-20T08:26:08.750Z,17.47
2023-05-20T08:28:37.932Z,17.49
2023-05-20T08:31:04.434Z,17.50
2023-05-20T08:33:31.019Z,17.44
2023-05-20T08:35:57.388Z,17.49
2023-05-20T08:38:23.790Z,17.66
2023-05-20T08:40:57.401Z,17.71
2023-05-20T08:43:25.247Z,17.72
2023-05-20T08:45:52.711Z,17.74
2023-05-20T08:48:20.357Z,17.79
2023-05-20T08:50:52.106Z,17.82
2023-05-20T08:53:20.636Z,17.89
2023-05-20T08:55:53.528Z,17.89
2023-05-20T08:58:20.916Z,18.06
2023-05-20T09:00:47.542Z,18.12
2023-05-20T09:03:14.397Z,18.21
2023-05-20T09:05:40.993Z,18.24
2023-05-20T09:08:09.711Z,18.30
2023-05-20T09:10:39.647Z,18.27
2023-05-20T09:13:07.349Z,18.25
2023-05-20T09:15:35.669Z,18.29
2023-05-20T09:18:04.524Z,18.34
2023-05-20T09:20:32.427Z,18.44
2023-05-20T09:23:05.313Z,18.58
2023-05-20T09:25:32.386Z,18.59
2023-05-20T09:27:59.209Z,18.69
2023-05-20T09:30:25.770Z,18.70
2023-05-20T09:32:57.123Z,18.65
2023-05-20T09:35:24.577Z,18.81
2023-05-20T09:37:56.074Z,18.83
2023-05-20T09:40:29.326Z,18.96
2023-05-20T09:43:04.456Z,19.09
2023-05-20T09:45:31.209Z,19.22
2023-05-20T09:47:58.111Z,19.24
2023-05-20T09:50:25.642Z,19.39
2023-05-20T09:52:53.071Z,19.46
2023-05-20T09:55:21.743Z,19.46
2023-05-20T09:57:48.220Z,19.39
2023-05-20T10:00:19.784Z,19.30
2023-05-20T10:02:48.864Z,19.49
2023-05-20T10:05:24.378Z,19.42
2023-05-20T10:08:09.608Z,19.40
2023-05-20T10:10:51.049Z,19.31
2023-05-20T10:13:49.216Z,19.29
2023-05-20T10:16:24.392Z,19.24
2023-05-20T10:19:23.328Z,19.20
2023-05-20T10:22:01.249Z,19.05
2023-05-20T10:24:41.125Z,18.90
2023-05-20T10:27:10.274Z,19.03
2023-05-20T10:29:56.156Z,19.06
2023-05-20T10:32:29.508Z,18.90
2023-05-20T10:35:05.071Z,18.64
2023-05-20T10:37:34.141Z,18.68
2023-05-20T10:40:16.187Z,18.80
2023-05-20T10:42:43.240Z,18.67
2023-05-20T10:45:10.200Z,18.67
2023-05-20T10:47:37.240Z,18.68
2023-05-20T10:50:07.517Z,18.69
2023-05-20T10:52:36.703Z,18.74
2023-05-20T10:55:04.937Z,18.77
2023-05-20T10:57:32.318Z,18.74
2023-05-20T10:59:59.650Z,18.66
2023-05-20T11:02:28.275Z,18.61
2023-05-20T11:05:00.766Z,18.74
2023-05-20T11:07:29.042Z,18.88
2023-05-20T11:09:56.499Z,19.00
2023-05-20T11:12:24.764Z,19.08
2023-05-20T11:14:51.717Z,19.06
2023-05-20T11:17:20.091Z,19.14
2023-05-20T11:19:47.965Z,19.32
2023-05-20T11:22:14.589Z,19.42
2023-05-20T11:24:41.588Z,19.45
2023-05-20T11:27:08.363Z,19.53
2023-05-20T11:29:35.178Z,19.66
2023-05-20T11:32:01.926Z,19.87
2023-05-20T11:34:39.300Z,19.72
2023-05-20T11:37:10.035Z,19.70
2023-05-20T11:39:37.170Z,19.77
2023-05-20T11:42:03.959Z,19.88
2023-05-20T11:44:30.621Z,19.89
2023-05-20T11:47:03.786Z,19.80
2023-05-20T11:49:31.069Z,19.78
2023-05-20T11:51:57.756Z,19.73
2023-05-20T11:54:24.764Z,19.65
2023-05-20T11:56:51.463Z,19.56
2023-05-20T11:59:18.457Z,19.64
2023-05-20T12:01:45.717Z,19.77
2023-05-20T12:04:16.412Z,19.62
2023-05-20T12:06:44.012Z,19.52
2023-05-20T12:09:11.033Z,19.53
2023-05-20T12:11:41.123Z,19.61
2023-05-20T12:14:08.521Z,19.75
2023-05-20T12:16:35.878Z,19.78
2023-05-20T12:19:03.575Z,19.87
2023-05-20T12:21:31.234Z,19.93
2023-05-20T12:23:59.454Z,20.08
2023-05-20T12:26:27.376Z,20.03
2023-05-20T12:28:54.474Z,20.08
2023-05-20T12:31:21.009Z,20.10
2023-05-20T12:33:47.778Z,20.09
2023-05-20T12:36:14.703Z,20.17
2023-05-20T12:38:41.335Z,20.17
2023-05-20T12:41:07.968Z,20.20
2023-05-20T12:43:36.962Z,20.23
2023-05-20T12:46:03.806Z,20.30
2023-05-20T12:48:30.322Z,20.25
2023-05-20T12:50:56.729Z,20.26
2023-05-20T12:53:23.104Z,20.51
2023-05-20T12:55:49.629Z,20.68
2023-05-20T12:58:16.066Z,20.80
2023-05-20T13:00:43.531Z,20.81
2023-05-20T13:03:10.089Z,20.73
2023-05-20T13:05:36.644Z,20.83
2023-05-20T13:08:03.269Z,20.58
2023-05-20T13:10:29.712Z,20.48
2023-05-20T13:12:56.319Z,20.29
2023-05-20T13:15:22.754Z,20.31
2023-05-20T13:17:49.211Z,20.39
2023-05-20T13:20:16.784Z,20.32
2023-05-20T13:22:44.788Z,20.24
2023-05-20T13:25:11.229Z,20.26
2023-05-20T13:27:37.616Z,20.28
2023-05-20T13:30:06.222Z,20.44
2023-05-20T13:32:32.708Z,20.30
2023-05-20T13:34:59.742Z,20.43
2023-05-20T13:37:26.495Z,20.35
2023-05-20T13:39:53.073Z,20.43
2023-05-20T13:42:19.549Z,20.40
2023-05-20T13:44:46.734Z,20.31
2023-05-20T13:47:13.128Z,20.31
2023-05-20T13:49:39.554Z,20.36
2023-05-20T13:52:06.270Z,20.47
2023-05-20T13:54:32.710Z,20.63
2023-05-20T13:56:59.461Z,20.64
2023-05-20T13:59:25.989Z,20.56
2023-05-20T14:01:53.681Z,20.50
2023-05-20T14:04:20.210Z,20.53
2023-05-20T14:06:46.695Z,20.33
2023-05-20T14:09:13.107Z,20.30
2023-05-20T14:11:39.524Z,20.32
2023-05-20T14:14:06.423Z,20.29
2023-05-20T14:16:33.128Z,20.20
2023-05-20T14:18:59.815Z,20.20
2023-05-20T14:21:26.339Z,20.15
2023-05-20T14:23:53.537Z,20.19
2023-05-20T14:26:20.014Z,20.20
2023-05-20T14:28:46.445Z,20.11
2023-05-20T14:31:12.939Z,20.05
2023-05-20T14:33:39.300Z,20.11
2023-05-20T14:36:05.980Z,20.08
2023-05-20T14:38:32.733Z,20.18
2023-05-20T14:40:59.245Z,20.33
2023-05-20T14:43:25.858Z,20.42
2023-05-20T14:45:52.749Z,20.47
2023-05-20T14:48:19.184Z,20.19
2023-05-20T14:50:46.430Z,20.15
2023-05-20T14:53:13.639Z,20.20
2023-05-20T14:55:40.027Z,20.21
2023-05-20T14:58:06.681Z,20.19
2023-05-20T15:00:33.782Z,20.10
2023-05-20T15:03:00.561Z,20.03
2023-05-20T15:05:27.043Z,20.08
2023-05-20T15:07:53.630Z,20.06
2023-05-20T15:10:20.039Z,19.95
2023-05-20T15:12:47.552Z,19.94
2023-05-20T15:15:14.070Z,19.86
2023-05-20T15:17:40.776Z,19.95
2023-05-20T15:20:08.129Z,20.05
2023-05-20T15:22:34.717Z,20.14
2023-05-20T15:25:01.430Z,20.21
2023-05-20T15:27:27.932Z,20.17
2023-05-20T15:29:54.322Z,20.10
2023-05-20T15:32:20.838Z,20.06
2023-05-20T15:34:47.387Z,19.94
2023-05-20T15:37:14.064Z,19.84
2023-05-20T15:39:40.487Z,19.85
2023-05-20T15:42:07.050Z,19.79
2023-05-20T15:44:35.218Z,19.75
2023-05-20T15:47:02.378Z,19.75
2023-05-20T15:49:28.962Z,19.74
2023-05-20T15:52:02.239Z,19.76
2023-05-20T15:54:30.613Z,19.86
2023-05-20T15:56:57.823Z,19.87
2023-05-20T15:59:24.355Z,19.72
2023-05-20T16:01:51.011Z,19.67
2023-05-20T16:04:17.650Z,19.66
2023-05-20T16:06:44.220Z,19.59
2023-05-20T16:09:10.744Z,19.62
2023-05-20T16:11:37.181Z,19.60
2023-05-20T16:14:03.558Z,19.56
2023-05-20T16:16:30.186Z,19.62
2023-05-20T16:18:56.663Z,19.59
2023-05-20T16:21:24.949Z,19.48
2023-05-20T16:23:52.890Z,19.34
2023-05-20T16:26:19.477Z,19.28
2023-05-20T16:28:46.139Z,19.22
2023-05-20T16:31:12.700Z,19.28
2023-05-20T16:33:39.200Z,19.21
2023-05-20T16:36:06.252Z,19.17
2023-05-20T16:38:34.353Z,19.24
2023-05-20T16:41:01.535Z,19.31
2023-05-20T16:43:28.039Z,19.26
2023-05-20T16:45:54.467Z,19.25
2023-05-20T16:48:21.284Z,19.29
2023-05-20T16:50:47.708Z,19.29
2023-05-20T16:53:16.220Z,19.14
2023-05-20T16:55:42.863Z,19.09
2023-05-20T16:58:09.459Z,19.09
2023-05-20T17:00:35.923Z,19.10
2023-05-20T17:03:02.470Z,19.11
2023-05-20T17:05:28.958Z,19.07
2023-05-20T17:07:58.913Z,19.12
2023-05-20T17:10:25.692Z,19.23
2023-05-20T17:12:52.127Z,19.21
2023-05-20T17:15:18.475Z,19.16
2023-05-20T17:17:44.860Z,19.16
2023-05-20T17:20:11.874Z,19.09
2023-05-20T17:22:38.226Z,19.15
2023-05-20T17:25:05.097Z,19.17
2023-05-20T17:27:33.127Z,19.26
2023-05-20T17:29:59.681Z,19.11
2023-05-20T17:32:26.291Z,19.02
2023-05-20T17:34:52.895Z,18.95
2023-05-20T17:37:19.366Z,19.01
2023-05-20T17:39:45.985Z,19.03
2023-05-20T17:42:12.536Z,19.02
2023-05-20T17:44:38.984Z,18.98
2023-05-20T17:47:05.343Z,19.03
2023-05-20T17:49:31.866Z,18.98
2023-05-20T17:51:58.237Z,19.08
2023-05-20T17:54:24.590Z,19.18
2023-05-20T17:56:51.332Z,19.08
2023-05-20T17:59:17.860Z,19.14
2023-05-20T18:01:44.761Z,19.09
2023-05-20T18:04:11.469Z,19.12
2023-05-20T18:06:37.961Z,19.03
2023-05-20T18:09:05.833Z,19.00
2023-05-20T18:11:33.446Z,18.97
2023-05-20T18:14:00.444Z,18.89
2023-05-20T18:16:28.400Z,18.82
2023-05-20T18:18:55.580Z,18.87
2023-05-20T18:21:23.060Z,18.91
2023-05-20T18:23:50.569Z,18.82
2023-05-20T18:26:17.154Z,18.78
2023-05-20T18:28:43.635Z,18.77
2023-05-20T18:31:10.106Z,18.61
2023-05-20T18:33:37.092Z,18.55
2023-05-20T18:36:05.665Z,18.58
2023-05-20T18:38:32.240Z,18.56
2023-05-20T18:40:59.516Z,18.53
2023-05-20T18:43:26.518Z,18.45
2023-05-20T18:45:53.184Z,18.39
2023-05-20T18:48:26.174Z,18.36
2023-05-20T18:50:53.706Z,18.35
2023-05-20T18:53:20.124Z,18.39
2023-05-20T18:55:47.302Z,18.43
2023-05-20T18:58:14.614Z,18.27
2023-05-20T19:00:41.600Z,18.24
2023-05-20T19:03:08.110Z,18.27
2023-05-20T19:05:34.840Z,18.31
2023-05-20T19:08:02.493Z,18.27
2023-05-20T19:10:29.482Z,18.14
2023-05-20T19:12:56.635Z,18.21
2023-05-20T19:15:23.054Z,18.11
2023-05-20T19:17:49.557Z,18.02
2023-05-20T19:20:16.283Z,18.04
2023-05-20T19:22:42.713Z,18.03
2023-05-20T19:25:09.409Z,17.99
2023-05-20T19:27:36.246Z,17.93
2023-05-20T19:30:02.750Z,17.90
2023-05-20T19:32:29.247Z,17.79
2023-05-20T19:34:55.875Z,17.83
2023-05-20T19:37:23.249Z,17.75
2023-05-20T19:39:49.925Z,17.63
2023-05-20T19:42:16.561Z,17.67
2023-05-20T19:44:42.991Z,17.63
2023-05-20T19:47:09.455Z,17.56
2023-05-20T19:49:36.333Z,17.52
2023-05-20T19:52:03.031Z,17.58
2023-05-20T19:54:29.532Z,17.51
2023-05-20T19:56:56.009Z,17.44
2023-05-20T19:59:22.352Z,17.35
2023-05-20T20:01:48.869Z,17.31
2023-05-20T20:04:17.206Z,17.25
2023-05-20T20:06:44.083Z,17.24
2023-05-20T20:09:10.961Z,17.28
2023-05-20T20:11:37.824Z,17.35
2023-05-20T20:14:04.215Z,17.25
2023-05-20T20:16:30.710Z,17.15
2023-05-20T20:18:57.289Z,17.14
2023-05-20T20:21:25.841Z,17.15
2023-05-20T20:23:52.991Z,17.07
2023-05-20T20:26:22.693Z,16.97
2023-05-20T20:28:49.154Z,16.88
2023-05-20T20:31:15.665Z,16.78
2023-05-20T20:33:42.137Z,16.80
2023-05-20T20:36:09.249Z,16.75
2023-05-20T20:38:37.483Z,16.99
2023-05-20T20:41:04.099Z,17.01
2023-05-20T20:43:30.565Z,17.02
2023-05-20T20:45:57.104Z,16.94
2023-05-20T20:48:26.931Z,16.80
2023-05-20T20:50:53.567Z,16.77
2023-05-20T20:53:19.998Z,16.81
2023-05-20T20:55:46.400Z,16.74
2023-05-20T20:58:14.928Z,16.79
2023-05-20T21:00:41.654Z,16.78
2023-05-20T21:03:08.550Z,16.74
2023-05-20T21:05:38.949Z,16.62
2023-05-20T21:08:08.123Z,16.61
2023-05-20T21:10:36.956Z,16.61
2023-05-20T21:13:03.821Z,16.50
2023-05-20T21:15:30.255Z,16.58
2023-05-20T21:17:56.697Z,16.65
2023-05-20T21:20:23.209Z,16.65
2023-05-20T21:22:49.643Z,16.56
2023-05-20T21:25:16.271Z,16.54
2023-05-20T21:27:42.869Z,16.57
2023-05-20T21:30:10.757Z,16.59
2023-05-20T21:32:37.648Z,16.40
2023-05-20T21:35:04.666Z,16.43
2023-05-20T21:37:31.061Z,16.35
2023-05-20T21:39:57.496Z,16.40
2023-05-20T21:42:23.945Z,16.42
2023-05-20T21:44:50.356Z,16.42
2023-05-20T21:47:16.829Z,16.34
2023-05-20T21:49:43.328Z,16.34
2023-05-20T21:52:09.782Z,16.39
2023-05-20T21:54:36.332Z,16.37
2023-05-20T21:57:02.899Z,16.35
2023-05-20T21:59:29.316Z,16.42
2023-05-20T22:01:57.944Z,16.48
2023-05-20T22:04:25.008Z,16.48
2023-05-20T22:06:51.583Z,16.45
2023-05-20T22:09:18.294Z,16.51
2023-05-20T22:11:45.126Z,16.55
2023-05-20T22:14:15.942Z,16.47
2023-05-20T22:16:46.491Z,16.56
2023-05-20T22:19:15.190Z,16.48
2023-05-20T22:21:50.266Z,16.48
2023-05-20T22:24:17.935Z,16.48
2023-05-20T22:26:44.685Z,16.43
2023-05-20T22:29:11.129Z,16.36
2023-05-20T22:31:38.049Z,16.32
2023-05-20T22:34:05.350Z,16.30
2023-05-20T22:36:34.155Z,16.34
2023-05-20T22:39:04.857Z,16.22
2023-05-20T22:41:31.438Z,16.18
2023-05-20T22:43:58.239Z,16.16
2023-05-20T22:46:25.469Z,16.14
2023-05-20T22:48:55.408Z,16.14
2023-05-20T22:51:22.687Z,16.12
2023-05-20T22:53:49.410Z,16.07
2023-05-20T22:56:16.204Z,16.04
2023-05-20T22:58:43.564Z,16.03
2023-05-20T23:01:10.579Z,16.03
2023-05-20T23:03:37.794Z,16.02
2023-05-20T23:06:04.355Z,15.97
2023-05-20T23:08:30.861Z,15.99
2023-05-20T23:10:57.296Z,16.01
2023-05-20T23:13:23.690Z,15.97
2023-05-20T23:15:50.380Z,15.97
2023-05-20T23:18:17.711Z,15.95
2023-05-20T23:20:44.894Z,15.89
2023-05-20T23:23:11.919Z,15.83
2023-05-20T23:25:38.794Z,15.76
2023-05-20T23:28:05.972Z,15.76
2023-05-20T23:30:32.380Z,15.75
2023-05-20T23:32:58.891Z,15.78
2023-05-20T23:35:25.656Z,15.77
2023-05-20T23:37:52.314Z,15.72
2023-05-20T23:40:19.165Z,15.71
2023-05-20T23:42:45.674Z,15.66
2023-05-20T23:45:12.289Z,15.64
2023-05-20T23:47:38.750Z,15.54
2023-05-20T23:50:05.646Z,15.57
2023-05-20T23:52:32.169Z,15.54
2023-05-20T23:54:59.861Z,15.52
2023-05-20T23:57:26.268Z,15.50
2023-05-20T23:59:52.816Z,15.45
